Time;durP1;ratioP1;P1;durP2;ratioP2;P2;SDS_P1;SDS_P2;PMS_P1;PMS_P2;Temp;Humidity;BMP_temperature;BMP_pressure;BME280_temperature;BME280_humidity;BME280_pressure;Samples;Min_cycle;Max_cycle;Signal;HPM_P1;HPM_P2
2022/03/23 00:01:22;;;;;;;27.90;12.27;;;5.60;99.90;;;;;;5013228;28;20123;-73
2022/03/23 00:03:49;;;;;;;19.60;9.87;;;5.50;99.90;;;;;;5013260;28;20342;-73
2022/03/23 00:06:17;;;;;;;19.33;9.75;;;5.40;99.90;;;;;;5011643;28;20085;-74
2022/03/23 00:08:44;;;;;;;18.13;9.70;;;5.40;99.90;;;;;;5013182;28;20442;-74
2022/03/23 00:11:09;;;;;;;12.73;7.05;;;5.30;99.90;;;;;;5012948;28;20324;-81
2022/03/23 00:13:35;;;;;;;43.47;5.93;;;5.30;99.90;;;;;;5010517;28;20026;-73
2022/03/23 00:16:01;;;;;;;14.75;4.45;;;5.20;99.90;;;;;;5012775;28;20326;-73
2022/03/23 00:18:28;;;;;;;18.53;4.40;;;5.20;99.90;;;;;;5013260;28;20494;-74
2022/03/23 00:20:54;;;;;;;8.90;4.53;;;5.10;99.90;;;;;;5012392;28;20091;-73
2022/03/23 00:23:19;;;;;;;10.83;5.63;;;5.10;99.90;;;;;;5016576;28;20057;-73
2022/03/23 00:25:45;;;;;;;13.17;5.80;;;5.00;99.90;;;;;;5032087;28;20034;-73
2022/03/23 00:28:10;;;;;;;12.33;6.10;;;5.00;99.90;;;;;;5032282;28;20036;-73
2022/03/23 00:30:36;;;;;;;23.93;11.23;;;4.90;99.90;;;;;;5014409;28;20056;-81
2022/03/23 00:33:03;;;;;;;40.13;18.57;;;5.00;99.90;;;;;;5032188;28;20025;-72
2022/03/23 00:35:29;;;;;;;42.17;17.73;;;5.10;99.90;;;;;;5014196;28;20075;-73
2022/03/23 00:37:58;;;;;;;38.95;19.13;;;5.10;99.90;;;;;;5031899;28;20060;-73
2022/03/23 00:40:24;;;;;;;43.55;14.93;;;5.10;99.90;;;;;;5014409;28;20412;-74
2022/03/23 00:42:50;;;;;;;72.43;17.05;;;5.10;99.90;;;;;;5032189;28;20037;-73
2022/03/23 00:45:17;;;;;;;38.93;15.80;;;5.10;99.90;;;;;;5032198;28;20045;-73
2022/03/23 00:47:45;;;;;;;42.00;19.27;;;5.10;99.90;;;;;;5031524;28;20032;-74
2022/03/23 00:50:11;;;;;;;48.78;20.90;;;5.20;99.90;;;;;;5031979;28;20751;-73
2022/03/23 00:52:37;;;;;;;50.97;23.47;;;5.30;99.90;;;;;;5031751;28;20472;-73
2022/03/23 00:55:04;;;;;;;56.77;22.87;;;5.30;99.90;;;;;;5014214;28;20025;-73
2022/03/23 00:57:29;;;;;;;55.30;21.10;;;5.30;99.90;;;;;;5031533;28;20038;-73
2022/03/23 00:59:55;;;;;;;72.00;19.70;;;5.30;99.90;;;;;;5031707;28;20102;-73
2022/03/23 01:02:21;;;;;;;50.47;21.60;;;5.20;99.90;;;;;;5013914;28;20033;-73
2022/03/23 01:04:47;;;;;;;67.20;24.77;;;5.10;99.90;;;;;;5014664;28;20080;-83
2022/03/23 01:07:12;;;;;;;49.03;19.80;;;5.10;99.90;;;;;;5031693;28;20413;-73
2022/03/23 01:09:38;;;;;;;55.37;22.03;;;5.20;99.90;;;;;;5013973;28;20468;-73
2022/03/23 01:12:04;;;;;;;60.57;25.33;;;5.40;99.90;;;;;;5013778;28;20029;-72
2022/03/23 01:14:30;;;;;;;51.38;15.13;;;5.40;99.90;;;;;;5031889;28;20116;-80
2022/03/23 01:16:56;;;;;;;45.27;22.73;;;5.30;99.90;;;;;;5031616;28;20124;-74
2022/03/23 01:19:27;;;;;;;42.10;13.77;;;5.20;99.90;;;;;;5031658;28;20359;-73
2022/03/23 01:21:54;;;;;;;37.20;10.15;;;5.10;99.90;;;;;;5014143;28;20373;-73
2022/03/23 01:24:20;;;;;;;36.33;16.50;;;5.00;99.90;;;;;;5031727;28;20119;-73
2022/03/23 01:26:46;;;;;;;25.63;11.85;;;4.90;99.90;;;;;;5017834;28;20060;-73
2022/03/23 01:29:13;;;;;;;26.23;12.07;;;4.90;99.90;;;;;;5035682;28;20599;-73
2022/03/23 01:31:38;;;;;;;17.55;10.38;;;5.00;99.90;;;;;;5035401;28;20033;-74
2022/03/23 01:34:04;;;;;;;8.73;6.07;;;4.90;99.90;;;;;;5035383;28;20041;-73
2022/03/23 01:36:31;;;;;;;4.80;3.87;;;4.80;99.90;;;;;;5017520;28;20025;-74
2022/03/23 01:38:58;;;;;;;10.32;6.10;;;4.70;99.90;;;;;;5035563;28;20111;-74
2022/03/23 01:41:24;;;;;;;44.95;13.73;;;4.50;99.90;;;;;;5035429;28;20315;-73
2022/03/23 01:43:50;;;;;;;37.08;16.15;;;4.40;99.90;;;;;;5035240;28;20029;-73
2022/03/23 01:46:17;;;;;;;50.10;21.40;;;4.60;99.90;;;;;;5017738;28;20451;-73
2022/03/23 01:48:44;;;;;;;45.38;18.30;;;5.00;99.90;;;;;;5017153;28;20025;-73
2022/03/23 01:51:11;;;;;;;32.78;13.40;;;5.00;99.90;;;;;;5034980;28;20052;-73
2022/03/23 01:53:37;;;;;;;62.55;11.55;;;4.90;99.90;;;;;;5034946;28;20029;-74
2022/03/23 01:56:03;;;;;;;33.20;16.20;;;4.70;99.90;;;;;;5035168;28;20030;-73
2022/03/23 01:58:29;;;;;;;53.43;19.80;;;4.60;99.90;;;;;;5017105;28;20119;-73
2022/03/23 02:00:54;;;;;;;24.03;11.70;;;4.50;99.90;;;;;;5035021;28;20350;-72
2022/03/23 02:03:20;;;;;;;15.03;6.70;;;4.50;99.90;;;;;;5016994;28;20112;-72
2022/03/23 02:05:48;;;;;;;13.57;7.50;;;4.30;99.90;;;;;;5034888;28;20316;-72
2022/03/23 02:08:14;;;;;;;36.17;12.98;;;4.20;99.90;;;;;;5034539;28;20080;-72
2022/03/23 02:10:41;;;;;;;32.50;16.57;;;4.20;99.90;;;;;;5017152;28;20440;-72
2022/03/23 02:13:09;;;;;;;45.47;18.00;;;4.30;99.90;;;;;;5016695;28;20026;-73
2022/03/23 02:15:35;;;;;;;40.15;18.50;;;4.40;99.90;;;;;;5016842;28;20025;-74
2022/03/23 02:18:01;;;;;;;52.13;20.67;;;4.50;99.90;;;;;;5034762;28;20029;-73
2022/03/23 02:20:27;;;;;;;33.27;14.23;;;4.60;99.90;;;;;;5024974;28;20029;-81
2022/03/23 02:22:53;;;;;;;114.68;16.88;;;4.70;99.90;;;;;;5014949;28;20584;-74
2022/03/23 02:25:22;;;;;;;116.80;11.43;;;4.80;99.90;;;;;;5014910;28;20164;-73
2022/03/23 02:27:49;;;;;;;23.40;10.35;;;4.70;99.90;;;;;;5014811;28;20138;-73
2022/03/23 02:30:14;;;;;;;25.50;10.40;;;4.60;99.90;;;;;;4997980;28;20034;-73
2022/03/23 02:32:40;;;;;;;21.77;11.07;;;4.60;99.90;;;;;;5016632;28;20384;-73
2022/03/23 02:35:08;;;;;;;16.27;9.20;;;4.50;99.90;;;;;;5017480;28;20037;-73
2022/03/23 02:37:35;;;;;;;7.22;5.38;;;4.40;99.90;;;;;;4983403;28;20026;-81
2022/03/23 02:40:01;;;;;;;;;;;4.20;99.90;;;;;;5000593;28;20053;-73
2022/03/23 02:42:26;;;;;;;5.32;3.28;;;4.00;99.90;;;;;;5017825;28;20004;-72
2022/03/23 02:44:52;;;;;;;34.27;16.17;;;3.90;99.90;;;;;;5000465;28;20026;-73
2022/03/23 02:47:18;;;;;;;21.97;11.80;;;3.90;99.90;;;;;;5025200;28;20456;-73
2022/03/23 02:49:44;;;;;;;125.10;17.63;;;3.90;99.90;;;;;;5037315;28;20479;-73
2022/03/23 02:52:10;;;;;;;71.17;13.13;;;3.90;99.90;;;;;;5033871;28;20029;-73
2022/03/23 03:03:14;;;;;;;34.42;14.73;;;4.20;99.90;;;;;;5037214;28;20110;-73
2022/03/23 03:05:40;;;;;;;35.47;16.65;;;4.10;99.90;;;;;;5003230;28;20041;-73
2022/03/23 03:10:50;;;;;;;24.83;12.32;;;3.90;99.90;;;;;;5037186;28;20374;-74
2022/03/23 03:13:16;;;;;;;25.03;12.23;;;3.80;99.90;;;;;;5019452;28;20116;-73
2022/03/23 03:15:42;;;;;;;27.33;13.73;;;3.70;99.90;;;;;;5036705;28;20116;-73
2022/03/23 03:18:08;;;;;;;27.30;13.47;;;3.70;99.90;;;;;;5035897;28;20017;-80
2022/03/23 03:20:34;;;;;;;12.73;6.82;;;3.70;99.90;;;;;;5009682;28;20030;-74
2022/03/23 03:22:59;;;;;;;6.40;4.40;;;3.70;99.90;;;;;;5016952;28;20095;-74
2022/03/23 03:25:25;;;;;;;9.13;3.83;;;3.60;99.90;;;;;;5016560;28;20313;-73
2022/03/23 03:27:51;;;;;;;23.13;5.53;;;3.50;99.90;;;;;;4999656;28;20033;-83
2022/03/23 03:30:18;;;;;;;115.80;9.13;;;3.40;99.90;;;;;;5016748;28;20060;-73
2022/03/23 03:32:45;;;;;;;203.00;9.32;;;3.30;99.90;;;;;;5020193;28;20056;-74
2022/03/23 03:35:11;;;;;;;16.42;6.10;;;3.30;99.90;;;;;;5036556;28;20017;-73
2022/03/23 03:37:37;;;;;;;14.85;8.70;;;3.40;99.90;;;;;;5036662;28;20030;-73
2022/03/23 03:40:05;;;;;;;237.70;9.57;;;3.40;99.90;;;;;;5036674;28;20108;-74
2022/03/23 03:42:30;;;;;;;103.97;6.53;;;3.50;99.90;;;;;;5036680;28;20030;-82
2022/03/23 03:44:57;;;;;;;344.33;15.70;;;3.60;99.90;;;;;;5036613;28;20078;-81
2022/03/23 03:47:23;;;;;;;237.57;11.90;;;3.50;99.90;;;;;;5036132;28;20100;-73
2022/03/23 03:49:49;;;;;;;265.13;13.68;;;3.40;99.90;;;;;;5018830;28;20037;-72
2022/03/23 03:52:15;;;;;;;154.00;10.43;;;3.40;99.90;;;;;;5036433;28;20021;-81
2022/03/23 03:54:41;;;;;;;23.40;10.83;;;3.30;99.90;;;;;;5036030;28;20685;-82
2022/03/23 03:57:07;;;;;;;31.47;13.70;;;3.20;99.90;;;;;;5036138;28;20095;-73
2022/03/23 03:59:34;;;;;;;40.90;17.25;;;3.20;99.90;;;;;;5018895;28;20044;-73
2022/03/23 04:02:01;;;;;;;42.85;18.58;;;3.20;99.90;;;;;;5036073;28;20033;-73
2022/03/23 04:04:26;;;;;;;47.33;18.25;;;3.20;99.90;;;;;;5036035;28;20029;-73
2022/03/23 04:06:52;;;;;;;47.27;18.80;;;3.20;99.90;;;;;;5035946;28;20115;-73
2022/03/23 04:09:18;;;;;;;46.57;19.87;;;3.30;99.90;;;;;;5035966;28;20031;-73
2022/03/23 04:11:44;;;;;;;44.37;19.23;;;3.30;99.90;;;;;;5018384;28;20108;-73
2022/03/23 04:14:10;;;;;;;40.05;15.70;;;3.30;99.90;;;;;;5018447;28;20068;-73
2022/03/23 04:16:36;;;;;;;31.47;14.30;;;3.20;99.90;;;;;;5035681;28;20030;-73
2022/03/23 04:19:03;;;;;;;39.43;16.93;;;3.20;99.90;;;;;;5018328;28;20447;-73
2022/03/23 04:21:29;;;;;;;47.80;18.98;;;3.20;99.90;;;;;;5018117;28;20076;-73
2022/03/23 04:23:54;;;;;;;40.90;19.07;;;3.20;99.90;;;;;;5018119;28;20050;-73
2022/03/23 04:26:20;;;;;;;59.47;24.13;;;3.30;99.90;;;;;;5035610;28;20027;-73
2022/03/23 04:28:45;;;;;;;61.23;23.77;;;3.60;99.90;;;;;;5035836;28;20032;-83
2022/03/23 04:31:11;;;;;;;43.47;16.87;;;3.70;99.90;;;;;;5035873;28;20026;-73
2022/03/23 04:33:37;;;;;;;40.47;18.17;;;3.70;99.90;;;;;;5018184;28;20488;-73
2022/03/23 04:36:03;;;;;;;25.60;11.70;;;3.60;99.90;;;;;;5018132;28;20035;-73
2022/03/23 04:38:29;;;;;;;39.93;16.97;;;3.40;99.90;;;;;;5035829;28;20032;-73
2022/03/23 04:40:54;;;;;;;31.43;13.93;;;3.30;99.90;;;;;;5035347;28;20316;-73
2022/03/23 04:43:20;;;;;;;31.63;12.57;;;3.20;99.90;;;;;;5018053;28;20057;-73
2022/03/23 04:45:46;;;;;;;27.37;12.70;;;3.10;99.90;;;;;;5035818;28;20032;-73
2022/03/23 04:48:12;;;;;;;42.40;17.40;;;3.00;99.90;;;;;;5035615;28;20375;-72
2022/03/23 04:50:37;;;;;;;49.83;19.27;;;3.20;99.90;;;;;;5035352;28;20416;-73
2022/03/23 04:53:03;;;;;;;26.33;12.30;;;3.40;99.90;;;;;;5017823;28;20083;-72
2022/03/23 04:55:29;;;;;;;82.63;10.77;;;3.30;99.90;;;;;;5035171;28;20029;-82
2022/03/23 04:57:55;;;;;;;17.40;8.85;;;3.20;99.90;;;;;;5035515;28;20033;-73
2022/03/23 05:00:21;;;;;;;15.63;7.90;;;2.90;99.90;;;;;;5039722;28;20108;-73
2022/03/23 05:02:49;;;;;;;28.70;11.93;;;2.70;99.90;;;;;;5042005;28;20108;-73
2022/03/23 05:05:15;;;;;;;32.33;14.57;;;2.70;99.90;;;;;;5041971;28;20032;-73
2022/03/23 05:07:43;;;;;;;43.95;16.55;;;2.70;99.90;;;;;;5042007;28;20479;-73
2022/03/23 05:10:10;;;;;;;41.08;17.00;;;2.70;99.90;;;;;;5041621;28;20301;-72
2022/03/23 05:12:36;;;;;;;;;;;2.80;99.90;;;;;;5042228;28;20079;-72
2022/03/23 05:15:02;;;;;;;;;;;2.90;99.90;;;;;;5024569;28;20207;-73
2022/03/23 05:17:28;;;;;;;49.27;18.53;;;2.90;99.90;;;;;;5024067;28;19909;-72
2022/03/23 05:19:53;;;;;;;39.43;15.73;;;2.80;99.90;;;;;;5024177;28;20273;-73
2022/03/23 05:22:19;;;;;;;52.20;17.60;;;3.10;99.90;;;;;;5041984;28;20063;-73
2022/03/23 05:24:45;;;;;;;57.90;20.90;;;3.10;99.90;;;;;;5041786;28;20056;-73
2022/03/23 05:27:10;;;;;;;61.47;22.37;;;3.20;99.90;;;;;;5024197;28;20026;-73
2022/03/23 05:29:36;;;;;;;33.17;14.33;;;3.20;99.90;;;;;;5024175;28;20111;-83
2022/03/23 05:32:03;;;;;;;39.47;16.53;;;3.10;99.90;;;;;;5041392;28;20026;-73
2022/03/23 05:34:28;;;;;;;46.45;17.02;;;2.90;99.90;;;;;;5041688;28;20472;-73
2022/03/23 05:36:54;;;;;;;50.27;18.40;;;2.90;99.90;;;;;;5041395;28;20112;-72
2022/03/23 05:39:20;;;;;;;44.90;18.30;;;2.80;99.90;;;;;;5041847;28;20034;-73
2022/03/23 05:41:46;;;;;;;54.07;20.43;;;2.80;99.90;;;;;;5023823;28;20057;-73
2022/03/23 05:44:12;;;;;;;52.58;19.40;;;2.80;99.90;;;;;;5041658;28;20103;-73
2022/03/23 05:46:38;;;;;;;50.57;19.13;;;2.90;99.90;;;;;;5041057;28;20361;-83
2022/03/23 05:49:05;;;;;;;42.38;16.52;;;2.90;99.90;;;;;;5041568;28;20036;-73
2022/03/23 05:51:30;;;;;;;41.50;16.33;;;3.00;99.90;;;;;;5041339;28;20117;-73
2022/03/23 05:53:56;;;;;;;21.57;9.60;;;3.00;99.90;;;;;;5041298;28;20476;-73
2022/03/23 05:56:22;;;;;;;33.33;12.93;;;3.00;99.90;;;;;;5007360;28;20033;-73
2022/03/23 05:58:48;;;;;;;35.43;14.73;;;2.90;99.90;;;;;;5041143;28;20470;-73
2022/03/23 06:01:14;;;;;;;22.80;9.93;;;2.90;99.90;;;;;;5023731;28;20022;-73
2022/03/23 06:03:40;;;;;;;40.63;13.52;;;2.90;99.90;;;;;;5041320;28;20045;-72
2022/03/23 06:06:06;;;;;;;31.47;14.30;;;3.00;99.90;;;;;;5041030;28;20029;-72
2022/03/23 06:08:32;;;;;;;37.25;15.73;;;3.10;99.90;;;;;;5041513;28;20561;-72
2022/03/23 06:10:58;;;;;;;56.53;14.80;;;3.10;99.90;;;;;;5040180;28;20033;-73
2022/03/23 06:13:23;;;;;;;24.17;11.20;;;3.10;99.90;;;;;;5038107;28;20037;-74
2022/03/23 06:15:50;;;;;;;30.70;14.63;;;3.10;99.90;;;;;;5038184;28;20425;-72
2022/03/23 06:18:15;;;;;;;41.13;18.05;;;3.10;99.90;;;;;;5038004;28;20021;-72
2022/03/23 06:20:41;;;;;;;48.40;18.63;;;3.10;99.90;;;;;;5020508;28;20529;-73
2022/03/23 06:23:07;;;;;;;36.43;16.17;;;3.20;99.90;;;;;;5020131;28;20026;-83
2022/03/23 06:25:33;;;;;;;54.90;19.87;;;3.20;99.90;;;;;;5020150;28;20045;-72
2022/03/23 06:27:58;;;;;;;32.83;13.13;;;3.30;99.90;;;;;;5037621;28;20258;-73
2022/03/23 06:30:24;;;;;;;48.97;19.93;;;3.20;99.90;;;;;;5038012;28;20297;-83
2022/03/23 06:32:50;;;;;;;52.57;19.70;;;3.20;99.90;;;;;;5037655;28;20142;-72
2022/03/23 06:35:16;;;;;;;54.83;20.13;;;3.30;99.90;;;;;;5037394;28;20400;-73
2022/03/23 06:37:43;;;;;;;47.80;20.20;;;3.60;99.90;;;;;;5037454;28;20202;-73
2022/03/23 06:40:10;;;;;;;50.55;22.30;;;3.90;99.90;;;;;;5037679;28;20072;-74
2022/03/23 06:42:36;;;;;;;56.00;24.15;;;4.30;99.90;;;;;;5037486;28;20379;-73
2022/03/23 06:45:03;;;;;;;65.22;23.38;;;4.70;99.90;;;;;;5037343;28;20087;-73
2022/03/23 06:47:30;;;;;;;55.85;21.58;;;5.20;99.90;;;;;;5037265;28;20306;-84
2022/03/23 06:49:55;;;;;;;56.03;22.13;;;5.30;99.90;;;;;;5037308;28;20040;-73
2022/03/23 06:52:21;;;;;;;48.70;20.00;;;5.20;99.90;;;;;;5019784;28;20029;-73
2022/03/23 06:54:47;;;;;;;50.67;21.47;;;5.10;99.90;;;;;;5019779;28;20400;-73
2022/03/23 06:57:12;;;;;;;48.93;21.40;;;5.20;99.90;;;;;;5037093;28;20079;-73
2022/03/23 06:59:38;;;;;;;46.67;20.63;;;5.60;99.90;;;;;;5037245;28;20032;-73
2022/03/23 07:02:05;;;;;;;48.67;20.77;;;6.00;99.90;;;;;;5037313;28;20056;-72
2022/03/23 07:04:31;;;;;;;54.50;22.90;;;6.50;99.90;;;;;;5037159;28;22138;-87
2022/03/23 07:06:57;;;;;;;56.30;23.13;;;7.50;99.90;;;;;;5019353;28;20036;-73
2022/03/23 07:09:31;;;;;;;48.40;21.40;;;8.50;99.90;;;;;;5037119;28;20104;-73
2022/03/23 07:11:58;;;;;;;41.65;20.45;;;9.40;99.90;;;;;;5036703;28;20032;-73
2022/03/23 07:14:24;;;;;;;46.33;20.75;;;10.30;99.90;;;;;;5036931;28;20021;-74
2022/03/23 07:16:50;;;;;;;43.80;20.10;;;11.10;99.90;;;;;;5019268;28;20026;-73
2022/03/23 07:19:16;;;;;;;51.90;23.93;;;11.80;99.90;;;;;;5036834;28;20075;-73
2022/03/23 07:21:42;;;;;;;47.80;20.98;;;12.50;99.90;;;;;;5036765;28;20026;-79
2022/03/23 07:24:08;;;;;;;47.73;20.77;;;13.10;99.90;;;;;;5035860;28;20049;-73
2022/03/23 07:26:34;;;;;;;48.80;20.47;;;13.30;99.90;;;;;;5019315;28;20026;-73
2022/03/23 07:29:01;;;;;;;47.53;20.50;;;13.50;99.90;;;;;;5018978;28;20021;-73
2022/03/23 07:31:27;;;;;;;49.40;21.30;;;13.50;99.90;;;;;;5036486;28;20028;-74
2022/03/23 07:33:52;;;;;;;43.58;19.90;;;13.40;99.90;;;;;;5036291;28;20026;-73
2022/03/23 07:36:19;;;;;;;42.60;20.07;;;13.30;99.90;;;;;;5036501;28;20057;-73
2022/03/23 07:38:44;;;;;;;49.38;20.25;;;13.40;99.90;;;;;;5036657;28;20099;-74
2022/03/23 07:41:10;;;;;;;45.70;20.73;;;13.70;99.90;;;;;;5036447;28;20080;-74
2022/03/23 07:43:36;;;;;;;46.87;20.03;;;13.60;99.90;;;;;;5036148;28;20104;-73
2022/03/23 07:46:01;;;;;;;43.03;19.93;;;13.50;99.90;;;;;;5036344;28;20104;-74
2022/03/23 07:48:27;;;;;;;43.40;19.73;;;13.50;99.90;;;;;;5036155;28;20037;-73
2022/03/23 07:50:53;;;;;;;43.27;20.37;;;13.70;99.90;;;;;;5036083;28;20033;-73
2022/03/23 07:53:19;;;;;;;46.90;19.40;;;13.90;99.90;;;;;;5036247;28;20080;-73
2022/03/23 07:55:45;;;;;;;42.17;18.90;;;14.20;99.90;;;;;;5036470;28;20045;-73
2022/03/23 07:58:11;;;;;;;39.33;18.95;;;14.00;99.90;;;;;;5018285;28;20060;-73
2022/03/23 08:00:38;;;;;;;43.08;18.77;;;13.60;99.90;;;;;;5036041;28;20067;-73
2022/03/23 08:03:05;;;;;;;43.92;19.88;;;13.20;99.90;;;;;;5036143;28;20038;-73
2022/03/23 08:05:31;;;;;;;44.28;18.17;;;12.90;99.90;;;;;;5035867;28;20490;-87
2022/03/23 08:07:57;;;;;;;44.20;18.88;;;12.60;99.90;;;;;;5018039;28;20029;-73
2022/03/23 08:10:23;;;;;;;39.17;18.90;;;12.90;99.90;;;;;;5001820;28;20091;-73
2022/03/23 08:12:50;;;;;;;47.57;20.30;;;13.00;99.90;;;;;;5035828;28;20322;-73
2022/03/23 08:15:16;;;;;;;37.13;17.65;;;12.80;99.90;;;;;;5002135;28;20412;-73
2022/03/23 08:17:42;;;;;;;48.10;19.23;;;12.90;99.90;;;;;;5035589;28;20108;-74
2022/03/23 08:22:55;;;;;;;39.45;18.27;;;12.80;99.90;;;;;;5035792;28;20447;-73
2022/03/23 08:25:21;;;;;;;40.42;18.73;;;12.70;99.90;;;;;;5018115;28;20116;-73
2022/03/23 08:27:47;;;;;;;36.43;17.83;;;13.00;99.90;;;;;;5035223;28;20760;-73
2022/03/23 08:30:13;;;;;;;42.50;18.33;;;13.50;99.90;;;;;;5035664;28;20065;-73
2022/03/23 08:32:39;;;;;;;44.67;17.50;;;13.60;99.90;;;;;;5035455;28;20148;-74
2022/03/23 08:35:06;;;;;;;36.07;18.80;;;13.60;99.90;;;;;;5034624;28;20022;-73
2022/03/23 08:37:32;;;;;;;40.30;18.23;;;13.50;99.90;;;;;;5035260;28;20032;-80
2022/03/23 08:39:58;;;;;;;36.00;18.07;;;13.70;99.90;;;;;;5035332;28;20029;-74
2022/03/23 08:42:24;;;;;;;46.38;18.83;;;14.10;99.90;;;;;;5017925;28;20155;-74
2022/03/23 08:44:49;;;;;;;32.87;17.33;;;14.40;98.70;;;;;;5035319;28;20438;-74
2022/03/23 08:47:17;;;;;;;35.93;17.80;;;14.60;98.50;;;;;;5035188;28;20021;-74
2022/03/23 08:49:43;;;;;;;31.95;16.35;;;14.80;97.70;;;;;;5035485;28;20076;-74
2022/03/23 08:52:09;;;;;;;38.95;18.38;;;15.20;97.60;;;;;;5035289;28;20026;-73
2022/03/23 08:54:35;;;;;;;49.10;16.97;;;15.20;97.70;;;;;;5035024;28;20037;-75
2022/03/23 08:57:00;;;;;;;38.27;16.50;;;15.20;95.80;;;;;;5035427;28;20061;-74
2022/03/23 08:59:26;;;;;;;32.50;15.33;;;15.10;96.30;;;;;;5017584;28;20029;-74
2022/03/23 09:01:52;;;;;;;36.40;16.43;;;15.00;95.80;;;;;;5017595;28;20034;-73
2022/03/23 09:04:18;;;;;;;32.43;15.97;;;15.00;95.80;;;;;;5017312;28;20026;-74
2022/03/23 09:06:44;;;;;;;37.83;16.30;;;15.00;96.60;;;;;;5035337;28;20029;-74
2022/03/23 09:09:10;;;;;;;33.35;15.95;;;15.00;97.20;;;;;;5035120;28;20026;-74
2022/03/23 09:11:35;;;;;;;35.40;16.70;;;15.20;95.80;;;;;;5035117;28;20034;-74
2022/03/23 09:14:01;;;;;;;42.37;18.03;;;15.40;95.80;;;;;;5035043;28;20025;-74
2022/03/23 09:16:27;;;;;;;37.17;16.10;;;15.50;96.20;;;;;;5034912;28;20026;-74
2022/03/23 09:18:53;;;;;;;36.53;15.73;;;15.60;95.90;;;;;;5034856;28;20026;-74
2022/03/23 09:21:20;;;;;;;31.02;15.98;;;15.60;95.30;;;;;;5035394;28;20029;-74
2022/03/23 09:23:45;;;;;;;30.33;16.20;;;15.40;94.90;;;;;;5034493;28;20049;-74
2022/03/23 09:26:11;;;;;;;29.90;15.47;;;15.40;95.60;;;;;;5035292;28;20408;-74
2022/03/23 09:28:38;;;;;;;36.33;14.97;;;15.70;96.30;;;;;;5034860;28;20022;-74
2022/03/23 09:31:04;;;;;;;33.38;15.15;;;15.70;94.80;;;;;;5034727;28;20072;-73
2022/03/23 09:33:31;;;;;;;35.47;15.13;;;15.80;93.20;;;;;;5034908;28;20030;-73
2022/03/23 09:35:57;;;;;;;34.38;14.38;;;15.70;93.20;;;;;;5034735;28;20025;-73
2022/03/23 09:38:23;;;;;;;28.00;15.15;;;15.70;94.10;;;;;;5034717;28;20485;-74
2022/03/23 09:40:50;;;;;;;35.93;15.30;;;15.90;94.60;;;;;;5034781;28;20108;-74
2022/03/23 09:43:19;;;;;;;26.05;13.70;;;16.00;92.90;;;;;;5034730;28;20685;-74
2022/03/23 09:45:48;;;;;;;32.85;13.60;;;16.00;90.90;;;;;;5035547;28;20037;-73
2022/03/23 09:48:22;;;;;;;24.88;12.40;;;15.90;92.20;;;;;;5038292;28;20051;-73
2022/03/23 09:50:52;;;;;;;28.08;13.13;;;16.00;90.60;;;;;;5038784;28;20110;-73
2022/03/23 09:53:20;;;;;;;27.67;12.10;;;16.10;90.00;;;;;;5020628;28;20029;-74
2022/03/23 09:55:46;;;;;;;25.48;13.55;;;16.20;91.00;;;;;;5038357;28;20021;-73
2022/03/23 09:58:12;;;;;;;20.17;12.18;;;16.20;90.70;;;;;;5038121;28;20029;-73
2022/03/23 10:00:44;;;;;;;32.33;13.65;;;16.30;90.50;;;;;;5020584;28;20034;-73
2022/03/23 10:03:09;;;;;;;30.13;12.18;;;16.30;87.40;;;;;;5038649;28;20100;-73
2022/03/23 10:05:38;;;;;;;33.63;13.47;;;16.30;90.80;;;;;;5038092;28;20532;-74
2022/03/23 10:08:22;;;;;;;28.30;13.88;;;16.40;92.10;;;;;;5038049;28;20026;-73
2022/03/23 10:11:22;;;;;;;30.77;13.70;;;16.40;88.40;;;;;;5020394;28;20033;-73
2022/03/23 10:14:25;;;;;;;19.75;10.73;;;16.40;90.10;;;;;;5037691;28;20029;-73
2022/03/23 10:17:42;;;;;;;29.67;14.93;;;16.50;88.30;;;;;;5037936;28;20025;-74
2022/03/23 10:20:11;;;;;;;28.20;13.52;;;16.70;90.30;;;;;;5006371;28;20037;-74
2022/03/23 10:22:49;;;;;;;24.27;12.75;;;16.70;91.70;;;;;;5020089;28;20535;-73
2022/03/23 10:25:16;;;;;;;29.95;14.15;;;16.80;86.70;;;;;;5037679;28;20302;-74
2022/03/23 10:27:43;;;;;;;40.70;15.60;;;16.80;89.80;;;;;;5037782;28;20033;-74
2022/03/23 10:30:09;;;;;;;24.35;12.98;;;16.90;88.20;;;;;;5020066;28;20039;-74
2022/03/23 10:32:42;;;;;;;29.95;13.48;;;16.90;88.90;;;;;;5037415;28;20128;-74
2022/03/23 10:35:14;;;;;;;30.48;12.82;;;16.90;87.50;;;;;;5019898;28;20454;-83
2022/03/23 10:37:40;;;;;;;30.48;13.35;;;16.90;85.10;;;;;;5020123;28;20025;-74
2022/03/23 10:40:17;;;;;;;23.50;11.65;;;17.00;86.90;;;;;;5037339;28;20025;-74
2022/03/23 10:42:47;;;;;;;31.77;13.25;;;17.10;83.60;;;;;;5020043;28;20375;-73
2022/03/23 10:45:16;;;;;;;20.88;10.73;;;17.10;85.20;;;;;;5037231;28;20112;-74
2022/03/23 10:47:44;;;;;;;39.50;13.85;;;17.20;79.30;;;;;;5037337;28;20048;-74
2022/03/23 10:50:24;;;;;;;25.27;12.23;;;17.30;85.20;;;;;;5037195;28;20017;-74
2022/03/23 10:52:50;;;;;;;27.13;11.07;;;17.40;82.80;;;;;;5003389;28;20368;-73
2022/03/23 10:55:16;;;;;;;27.67;12.10;;;17.50;83.10;;;;;;5019598;28;20028;-74
2022/03/23 10:58:00;;;;;;;27.45;10.60;;;17.50;82.40;;;;;;5018776;28;20037;-74
2022/03/23 11:00:29;;;;;;;32.25;12.18;;;17.70;80.40;;;;;;5037072;28;20029;-74
2022/03/23 11:02:55;;;;;;;28.08;11.38;;;17.70;83.30;;;;;;5037014;28;20053;-74
2022/03/23 11:05:42;;;;;;;27.35;11.68;;;17.70;85.10;;;;;;5019446;28;20029;-73
2022/03/23 11:08:12;;;;;;;27.83;10.77;;;17.70;82.30;;;;;;5003335;28;20038;-74
2022/03/23 11:16:16;;;;;;;28.73;10.30;;;18.00;79.50;;;;;;5036976;28;20063;-74
2022/03/23 11:18:42;;;;;;;25.20;10.65;;;17.90;79.30;;;;;;5019324;28;20967;-74
2022/03/23 11:21:08;;;;;;;26.23;8.70;;;17.80;80.20;;;;;;5019262;28;20049;-73
2022/03/23 11:23:37;;;;;;;34.42;10.30;;;17.90;80.10;;;;;;5036446;28;20083;-75
2022/03/23 11:26:10;;;;;;;18.40;8.60;;;18.00;79.20;;;;;;5036497;28;20043;-74
2022/03/23 11:28:46;;;;;;;33.72;10.55;;;18.00;76.90;;;;;;5018885;28;20029;-75
2022/03/23 11:31:16;;;;;;;23.25;8.93;;;18.20;79.90;;;;;;5019367;28;20041;-75
2022/03/23 11:33:45;;;;;;;22.83;9.13;;;18.30;76.20;;;;;;5036403;28;20037;-74
2022/03/23 11:36:12;;;;;;;19.67;9.95;;;18.40;76.10;;;;;;5019238;28;20032;-74
2022/03/23 11:38:38;;;;;;;;;;;18.40;76.50;;;;;;5019335;28;20328;-74
2022/03/23 11:41:04;;;;;;;;;;;18.40;74.90;;;;;;5037058;28;19956;-73
2022/03/23 11:43:34;;;;;;;31.15;10.00;;;18.30;74.70;;;;;;5036628;28;19905;-74
2022/03/23 11:46:02;;;;;;;25.92;8.90;;;18.20;75.20;;;;;;5036311;28;20037;-74
2022/03/23 11:48:49;;;;;;;22.48;10.00;;;18.30;74.80;;;;;;5035846;28;20136;-75
2022/03/23 11:51:36;;;;;;;25.70;10.05;;;18.40;75.40;;;;;;5018642;28;20495;-74
2022/03/23 11:54:18;;;;;;;20.48;9.02;;;18.60;73.70;;;;;;5036127;28;20044;-80
2022/03/23 11:56:58;;;;;;;20.50;10.38;;;18.70;72.50;;;;;;5018475;28;20026;-74
2022/03/23 11:59:25;;;;;;;20.65;9.75;;;18.60;74.80;;;;;;5036073;28;20049;-75
2022/03/23 12:01:52;;;;;;;23.98;9.70;;;18.70;71.90;;;;;;5035843;28;20040;-74
2022/03/23 12:04:26;;;;;;;24.05;9.48;;;18.60;69.60;;;;;;5035848;28;20427;-74
2022/03/23 12:07:04;;;;;;;31.30;10.32;;;18.70;73.60;;;;;;5018352;28;20033;-74
2022/03/23 12:09:36;;;;;;;25.60;9.82;;;18.80;71.90;;;;;;5035677;28;20030;-74
2022/03/23 12:12:12;;;;;;;28.98;9.70;;;19.00;72.70;;;;;;5035644;28;20026;-81
2022/03/23 12:14:40;;;;;;;35.08;13.25;;;18.90;73.80;;;;;;5018285;28;20030;-74
2022/03/23 12:17:16;;;;;;;22.83;8.65;;;18.90;80.40;;;;;;5035816;28;20044;-74
2022/03/23 12:20:09;;;;;;;23.47;11.70;;;19.00;72.40;;;;;;5013969;28;20387;-75
2022/03/23 12:22:48;;;;;;;26.17;11.85;;;18.90;82.80;;;;;;5018288;28;20112;-76
2022/03/23 12:25:40;;;;;;;25.23;11.93;;;18.60;82.90;;;;;;5035383;28;20088;-75
2022/03/23 12:28:40;;;;;;;27.98;12.73;;;18.30;82.30;;;;;;5019217;28;20030;-76
2022/03/23 12:31:13;;;;;;;34.50;13.32;;;18.10;85.80;;;;;;5035865;28;20323;-77
2022/03/23 12:34:19;;;;;;;25.40;12.57;;;17.80;85.00;;;;;;5035717;28;20034;-76
2022/03/23 12:37:01;;;;;;;27.90;13.35;;;17.90;87.40;;;;;;4939449;29;20034;-76
2022/03/23 12:39:47;;;;;;;33.78;11.20;;;17.70;90.30;;;;;;4955363;29;20050;-75
2022/03/23 12:42:13;;;;;;;36.97;14.68;;;17.60;87.60;;;;;;4955319;29;20114;-76
2022/03/23 12:45:04;;;;;;;35.23;17.70;;;17.60;89.70;;;;;;4939336;29;20535;-77
2022/03/23 12:47:33;;;;;;;30.50;15.82;;;17.60;92.60;;;;;;4948508;29;20028;-75
2022/03/23 12:58:34;;;;;;;32.00;15.88;;;17.30;91.30;;;;;;4955005;29;20098;-76
2022/03/23 13:01:17;;;;;;;40.35;17.23;;;17.20;92.30;;;;;;4955174;29;20030;-75
2022/03/23 13:03:49;;;;;;;34.55;15.93;;;17.00;93.70;;;;;;4955266;28;20334;-75
2022/03/23 13:06:19;;;;;;;35.00;17.58;;;17.00;93.10;;;;;;4954943;28;20743;-76
2022/03/23 13:08:49;;;;;;;31.48;17.00;;;17.00;94.20;;;;;;4939069;29;20031;-76